Time;durP1;ratioP1;P1;durP2;ratioP2;P2;SDS_P1;SDS_P2;PMS_P1;PMS_P2;Temp;Humidity;BMP_temperature;BMP_pressure;BME280_temperature;BME280_humidity;BME280_pressure;Samples;Min_cycle;Max_cycle;Signal;HPM_P1;HPM_P2
2022/10/23 00:01:54;;;;;;;6.63;3.00;;;14.90;99.90;;;;;;4138838;28;20037;-65
2022/10/23 00:04:15;;;;;;;7.15;3.10;;;14.90;99.90;;;;;;4138049;28;20038;-66
2022/10/23 00:06:16;;;;;;;5.35;2.63;;;14.90;99.90;;;;;;4133629;28;20109;-66
2022/10/23 00:08:17;;;;;;;5.40;2.95;;;14.90;99.90;;;;;;4153671;28;20091;-65
2022/10/23 00:10:19;;;;;;;4.97;2.58;;;14.90;99.90;;;;;;4141878;28;20132;-65
2022/10/23 00:12:20;;;;;;;4.90;2.45;;;14.90;99.90;;;;;;4138311;28;20498;-66
2022/10/23 00:14:23;;;;;;;3.65;2.30;;;14.90;99.90;;;;;;4137806;28;20045;-66
2022/10/23 00:16:23;;;;;;;4.90;2.83;;;14.80;99.90;;;;;;4129831;28;20046;-66
2022/10/23 00:18:24;;;;;;;5.38;2.80;;;14.80;99.90;;;;;;4133376;28;20088;-65
2022/10/23 00:20:24;;;;;;;4.70;2.70;;;14.80;99.90;;;;;;4139780;28;20030;-65
2022/10/23 00:22:25;;;;;;;5.95;2.88;;;14.80;99.90;;;;;;4153236;28;20499;-66
2022/10/23 00:24:26;;;;;;;5.07;2.80;;;14.80;99.90;;;;;;4131301;28;20104;-67
2022/10/23 00:26:27;;;;;;;6.70;2.60;;;14.80;99.90;;;;;;4134324;28;20035;-66
2022/10/23 00:28:27;;;;;;;6.55;3.03;;;14.80;99.90;;;;;;4152283;28;20076;-65
2022/10/23 00:30:28;;;;;;;5.90;2.80;;;14.80;99.90;;;;;;4141169;28;20034;-66
2022/10/23 00:32:28;;;;;;;4.95;2.58;;;14.80;99.90;;;;;;4133421;28;20476;-67
2022/10/23 00:34:29;;;;;;;7.30;2.50;;;14.80;99.90;;;;;;4137619;28;20395;-66
2022/10/23 00:36:30;;;;;;;7.28;2.70;;;14.80;99.90;;;;;;4130721;28;20034;-66
2022/10/23 00:38:30;;;;;;;5.93;2.83;;;14.80;99.90;;;;;;4138281;28;20088;-65
2022/10/23 00:40:31;;;;;;;6.65;2.78;;;14.70;99.90;;;;;;4118130;28;20039;-66
2022/10/23 00:42:31;;;;;;;6.15;2.75;;;14.70;99.90;;;;;;4132093;28;20455;-66
2022/10/23 00:44:32;;;;;;;5.55;2.60;;;14.70;99.90;;;;;;4122225;28;20559;-65
2022/10/23 00:46:33;;;;;;;4.47;2.30;;;14.70;99.90;;;;;;4120951;28;20023;-65
2022/10/23 00:48:34;;;;;;;5.10;2.50;;;14.70;99.90;;;;;;4122735;28;20034;-66
2022/10/23 00:50:35;;;;;;;7.32;2.80;;;14.70;99.90;;;;;;4124557;28;20096;-66
2022/10/23 00:52:40;;;;;;;10.32;3.13;;;14.70;99.90;;;;;;4136149;28;20034;-66
2022/10/23 00:54:42;;;;;;;7.05;2.55;;;14.70;99.90;;;;;;4119808;28;20116;-66
2022/10/23 00:56:43;;;;;;;8.35;2.90;;;14.70;99.90;;;;;;4113218;28;20089;-66
2022/10/23 00:58:44;;;;;;;5.03;2.90;;;14.60;99.90;;;;;;4119974;28;20169;-66
2022/10/23 01:00:53;;;;;;;4.38;2.50;;;14.60;99.90;;;;;;4119101;28;20082;-65
2022/10/23 01:02:56;;;;;;;4.25;2.30;;;14.60;99.90;;;;;;4107058;28;20081;-66
2022/10/23 01:04:56;;;;;;;5.05;2.38;;;14.60;99.90;;;;;;4117028;28;20395;-66
2022/10/23 01:07:26;;;;;;;4.43;2.35;;;14.60;99.90;;;;;;4118270;28;20054;-65
2022/10/23 01:09:43;;;;;;;3.47;2.17;;;14.60;99.90;;;;;;4117180;28;20181;-66
2022/10/23 01:11:51;;;;;;;9.27;2.38;;;14.60;99.90;;;;;;4125666;28;20062;-65
2022/10/23 01:14:24;;;;;;;4.25;2.42;;;14.60;99.90;;;;;;4120880;28;20043;-65
2022/10/23 01:16:47;;;;;;;8.32;2.75;;;14.60;99.90;;;;;;4122608;28;20034;-66
2022/10/23 01:19:31;;;;;;;6.32;2.67;;;14.60;99.90;;;;;;4139448;28;20045;-66
2022/10/23 01:22:14;;;;;;;8.27;3.10;;;14.60;99.90;;;;;;4124619;28;20046;-66
2022/10/23 01:24:47;;;;;;;5.70;2.47;;;14.60;99.90;;;;;;4128142;28;20050;-66
2022/10/23 01:27:21;;;;;;;3.85;2.08;;;14.50;99.90;;;;;;4150820;28;20037;-66
2022/10/23 01:29:32;;;;;;;;;;;14.50;99.90;;;;;;4149335;28;20509;-65
2022/10/23 01:31:39;;;;;;;4.90;2.20;;;14.50;99.90;;;;;;4155451;28;19909;-66
2022/10/23 01:33:45;;;;;;;6.93;2.40;;;14.50;99.90;;;;;;4166188;28;20045;-66
2022/10/23 01:35:50;;;;;;;6.55;2.53;;;14.50;99.90;;;;;;4147062;28;20033;-66
2022/10/23 01:37:57;;;;;;;5.07;2.60;;;14.60;99.90;;;;;;4150475;28;20583;-65
2022/10/23 01:40:02;;;;;;;5.72;2.55;;;14.50;99.90;;;;;;4135255;28;20049;-66
2022/10/23 01:42:18;;;;;;;6.30;2.25;;;14.50;99.90;;;;;;4155625;28;20045;-66
2022/10/23 01:44:49;;;;;;;4.75;2.40;;;14.50;99.90;;;;;;4160166;28;20104;-66
2022/10/23 01:46:51;;;;;;;4.03;2.28;;;14.50;99.90;;;;;;4143635;28;20395;-66
2022/10/23 01:48:54;;;;;;;5.57;2.78;;;14.50;99.90;;;;;;4126120;28;20454;-65
2022/10/23 01:50:59;;;;;;;4.65;2.33;;;14.50;99.90;;;;;;4144638;28;20034;-65
2022/10/23 01:52:59;;;;;;;8.00;3.15;;;14.50;99.90;;;;;;4134822;28;20503;-65
2022/10/23 01:55:00;;;;;;;6.68;2.55;;;14.50;99.90;;;;;;4138788;28;20030;-66
2022/10/23 01:57:03;;;;;;;4.55;2.50;;;14.50;99.90;;;;;;4152135;28;20503;-65
2022/10/23 01:59:09;;;;;;;4.97;2.50;;;14.50;99.90;;;;;;4138717;28;20099;-66
2022/10/23 02:01:11;;;;;;;5.95;2.70;;;14.50;99.90;;;;;;4142927;28;20049;-66
2022/10/23 02:03:16;;;;;;;7.43;2.67;;;14.50;99.90;;;;;;4139028;28;20519;-66
2022/10/23 02:05:27;;;;;;;5.43;2.90;;;14.50;99.90;;;;;;4133680;28;20033;-68
2022/10/23 02:07:29;;;;;;;5.55;2.42;;;14.50;99.90;;;;;;4151451;28;20049;-68
2022/10/23 02:09:31;;;;;;;5.75;2.53;;;14.40;99.90;;;;;;4138445;28;20113;-68
2022/10/23 02:11:38;;;;;;;4.88;2.10;;;14.50;99.90;;;;;;4170077;28;20085;-68
2022/10/23 02:14:15;;;;;;;7.00;2.50;;;14.50;99.90;;;;;;4155765;28;20052;-68
2022/10/23 02:16:38;;;;;;;6.05;2.67;;;14.40;99.90;;;;;;4133461;28;20038;-68
2022/10/23 02:18:57;;;;;;;4.80;2.55;;;14.40;99.90;;;;;;4124370;28;20050;-69
2022/10/23 02:21:04;;;;;;;5.72;2.63;;;14.40;99.90;;;;;;4119995;28;20031;-68
2022/10/23 02:23:32;;;;;;;3.75;2.25;;;14.40;99.90;;;;;;4135420;28;20492;-68
2022/10/23 02:25:42;;;;;;;7.18;2.50;;;14.40;99.90;;;;;;4122217;28;20169;-67
2022/10/23 02:27:54;;;;;;;5.70;2.60;;;14.40;99.90;;;;;;4124708;28;20089;-69
2022/10/23 02:30:00;;;;;;;5.10;2.47;;;14.40;99.90;;;;;;4126348;28;20093;-68
2022/10/23 02:32:01;;;;;;;5.97;2.05;;;14.40;99.90;;;;;;4117676;28;20027;-68
2022/10/23 02:34:02;;;;;;;3.90;2.00;;;14.40;99.90;;;;;;4122382;28;20137;-68
2022/10/23 02:36:03;;;;;;;4.85;2.20;;;14.40;99.90;;;;;;4116011;28;20393;-68
2022/10/23 02:38:49;;;;;;;4.95;2.53;;;14.40;99.90;;;;;;4124507;28;20027;-67
2022/10/23 02:40:51;;;;;;;4.82;2.40;;;14.40;99.90;;;;;;4133541;28;20038;-68
2022/10/23 02:42:58;;;;;;;3.70;2.15;;;14.40;99.90;;;;;;4170568;28;20461;-68
2022/10/23 02:45:12;;;;;;;8.63;2.53;;;14.40;99.90;;;;;;4139679;28;20049;-68
2022/10/23 02:47:37;;;;;;;4.20;2.13;;;14.40;99.90;;;;;;4119976;28;20062;-68
2022/10/23 02:49:59;;;;;;;4.32;2.30;;;14.40;99.90;;;;;;4135795;28;20456;-68
2022/10/23 02:52:11;;;;;;;5.50;2.10;;;14.40;99.90;;;;;;4131562;28;20043;-67
2022/10/23 02:54:47;;;;;;;7.90;2.92;;;14.40;99.90;;;;;;4136989;28;20061;-69
2022/10/23 02:57:10;;;;;;;3.55;2.38;;;14.40;99.90;;;;;;4134181;28;20022;-68
2022/10/23 02:59:23;;;;;;;6.85;2.33;;;14.40;99.90;;;;;;4137541;28;20141;-68
2022/10/23 03:01:27;;;;;;;4.82;2.40;;;14.40;99.90;;;;;;4134955;28;20038;-63
2022/10/23 03:03:37;;;;;;;5.93;2.10;;;14.40;99.90;;;;;;4134980;28;20041;-63
2022/10/23 03:05:39;;;;;;;3.97;2.25;;;14.40;99.90;;;;;;4139096;28;20042;-62
2022/10/23 03:07:40;;;;;;;4.07;2.22;;;14.40;99.90;;;;;;4141396;28;20499;-63
2022/10/23 03:09:40;;;;;;;4.30;2.42;;;14.40;99.90;;;;;;4132787;28;20041;-62
2022/10/23 03:11:41;;;;;;;5.13;2.30;;;14.40;99.90;;;;;;4138861;28;20037;-64
2022/10/23 03:13:41;;;;;;;2.03;1.70;;;14.40;99.90;;;;;;4138439;28;20046;-62
2022/10/23 03:15:42;;;;;;;4.35;2.45;;;14.40;99.90;;;;;;4137302;28;20085;-62
2022/10/23 03:17:43;;;;;;;6.75;2.25;;;14.40;99.90;;;;;;4135372;28;20032;-62
2022/10/23 03:19:44;;;;;;;4.32;1.73;;;14.40;99.90;;;;;;4139338;28;20165;-63
2022/10/23 03:21:44;;;;;;;4.78;2.45;;;14.40;99.90;;;;;;4136846;28;20115;-64
2022/10/23 03:23:45;;;;;;;4.22;2.10;;;14.50;99.90;;;;;;4138647;28;20099;-63
2022/10/23 03:25:46;;;;;;;3.05;2.00;;;14.50;99.90;;;;;;4138037;28;22228;-63
2022/10/23 03:27:46;;;;;;;2.78;1.65;;;14.50;99.90;;;;;;4135128;28;20390;-63
2022/10/23 03:29:47;;;;;;;3.28;1.98;;;14.50;99.90;;;;;;4133140;28;20408;-62
2022/10/23 03:31:47;;;;;;;4.50;2.15;;;14.50;99.90;;;;;;4137845;28;20467;-62
2022/10/23 03:33:48;;;;;;;3.28;1.80;;;14.50;99.90;;;;;;4153898;28;20041;-63
2022/10/23 03:35:49;;;;;;;7.28;2.67;;;14.50;99.90;;;;;;4138691;28;20039;-62
2022/10/23 03:37:49;;;;;;;4.32;2.05;;;14.50;99.90;;;;;;4138321;28;20046;-62
2022/10/23 03:39:50;;;;;;;3.58;1.77;;;14.50;99.90;;;;;;4126491;28;20026;-62
2022/10/23 03:41:50;;;;;;;3.90;2.13;;;14.50;99.90;;;;;;4144752;28;20034;-63
2022/10/23 03:43:51;;;;;;;4.55;2.10;;;14.50;99.90;;;;;;4137265;28;20033;-63
2022/10/23 03:45:51;;;;;;;2.38;1.77;;;14.50;99.90;;;;;;4131687;28;20084;-63
2022/10/23 03:47:52;;;;;;;2.30;1.73;;;14.50;99.90;;;;;;4135979;28;20053;-62
2022/10/23 03:49:53;;;;;;;3.47;2.03;;;14.60;99.90;;;;;;4136688;28;20053;-63
2022/10/23 03:51:53;;;;;;;3.00;1.83;;;14.60;99.90;;;;;;4134629;28;20104;-63
2022/10/23 03:53:54;;;;;;;5.40;1.98;;;14.60;99.90;;;;;;4139449;28;20049;-63
2022/10/23 03:55:55;;;;;;;4.40;2.03;;;14.50;99.90;;;;;;4126136;28;20427;-63
2022/10/23 03:57:55;;;;;;;4.35;2.20;;;14.60;99.90;;;;;;4136053;28;20034;-64
2022/10/23 03:59:56;;;;;;;3.97;2.08;;;14.60;99.90;;;;;;4136234;28;20034;-63
2022/10/23 04:01:56;;;;;;;3.78;2.08;;;14.60;99.90;;;;;;4134669;28;20341;-65
2022/10/23 04:03:57;;;;;;;5.22;2.20;;;14.60;99.90;;;;;;4137820;28;20517;-63
2022/10/23 04:05:57;;;;;;;3.97;1.92;;;14.60;99.90;;;;;;4140319;28;20562;-64
2022/10/23 04:07:58;;;;;;;8.98;2.50;;;14.60;99.90;;;;;;4139029;28;20030;-63
2022/10/23 04:09:59;;;;;;;5.93;2.42;;;14.60;99.90;;;;;;4139897;28;20069;-63
2022/10/23 04:11:59;;;;;;;4.55;1.70;;;14.60;99.90;;;;;;4136333;28;20030;-63
2022/10/23 04:14:00;;;;;;;3.47;2.13;;;14.60;99.90;;;;;;4138009;28;20406;-63
2022/10/23 04:16:00;;;;;;;5.07;2.03;;;14.60;99.90;;;;;;4136260;28;20113;-62
2022/10/23 04:18:01;;;;;;;4.60;2.10;;;14.60;99.90;;;;;;4141921;28;20481;-63
2022/10/23 04:20:02;;;;;;;4.30;2.00;;;14.60;99.90;;;;;;4136211;28;20041;-63
2022/10/23 04:22:03;;;;;;;5.93;1.80;;;14.60;99.90;;;;;;4137568;28;20403;-63
2022/10/23 04:24:04;;;;;;;3.45;1.63;;;14.50;99.90;;;;;;4135137;28;20594;-63
2022/10/23 04:26:04;;;;;;;3.67;1.70;;;14.50;99.90;;;;;;4135830;28;20392;-64
2022/10/23 04:28:05;;;;;;;3.50;1.40;;;14.60;99.90;;;;;;4137241;28;20026;-63
2022/10/23 04:30:06;;;;;;;4.05;1.98;;;14.60;99.90;;;;;;4133768;28;20057;-63
2022/10/23 04:32:07;;;;;;;5.13;2.60;;;14.60;99.90;;;;;;4140916;28;20491;-63
2022/10/23 04:34:07;;;;;;;6.28;2.55;;;14.60;99.90;;;;;;4142605;28;20180;-62
2022/10/23 04:36:08;;;;;;;4.30;2.35;;;14.60;99.90;;;;;;4134001;28;20052;-63
2022/10/23 04:38:09;;;;;;;7.90;2.25;;;14.60;99.90;;;;;;4149052;28;20041;-63
2022/10/23 04:40:10;;;;;;;5.68;2.20;;;14.60;99.90;;;;;;4140878;28;20068;-64
2022/10/23 04:42:10;;;;;;;5.55;2.35;;;14.60;99.90;;;;;;4138978;28;20049;-63
2022/10/23 04:44:11;;;;;;;4.82;2.65;;;14.60;99.90;;;;;;4148372;28;20041;-63
2022/10/23 04:46:11;;;;;;;4.82;1.88;;;14.50;99.90;;;;;;4123829;28;20115;-63
2022/10/23 04:48:12;;;;;;;5.55;2.00;;;14.60;99.90;;;;;;4137532;28;20495;-63
2022/10/23 04:50:12;;;;;;;4.07;2.03;;;14.60;99.90;;;;;;4141206;28;20044;-63
2022/10/23 04:52:14;;;;;;;4.25;2.25;;;14.60;99.90;;;;;;4137704;28;20038;-63
2022/10/23 04:54:14;;;;;;;5.18;1.90;;;14.50;99.90;;;;;;4141310;28;20045;-63
2022/10/23 04:56:15;;;;;;;6.70;2.00;;;14.50;99.90;;;;;;4154374;28;20037;-63
2022/10/23 04:58:15;;;;;;;4.70;2.15;;;14.50;99.90;;;;;;4139087;28;20077;-65
2022/10/23 05:00:17;;;;;;;4.35;2.00;;;14.60;99.90;;;;;;4139471;28;20046;-63
2022/10/23 05:02:17;;;;;;;5.50;1.60;;;14.60;99.90;;;;;;4136860;28;20037;-63
2022/10/23 05:04:18;;;;;;;3.38;1.77;;;14.50;99.90;;;;;;4134084;28;20052;-63
2022/10/23 05:06:19;;;;;;;5.45;1.85;;;14.50;99.90;;;;;;4139970;28;20030;-67
2022/10/23 05:08:21;;;;;;;5.45;2.05;;;14.50;99.90;;;;;;4141117;28;20416;-63
2022/10/23 05:10:22;;;;;;;4.38;1.65;;;14.50;99.90;;;;;;4138087;28;20128;-62
2022/10/23 05:12:24;;;;;;;5.85;1.98;;;14.60;99.90;;;;;;4136115;28;20035;-63
2022/10/23 05:14:24;;;;;;;3.72;1.80;;;14.50;99.90;;;;;;4133389;28;20054;-65
2022/10/23 05:16:35;;;;;;;5.88;2.13;;;14.50;99.90;;;;;;4138385;28;20033;-65
2022/10/23 05:18:44;;;;;;;4.10;2.00;;;14.60;99.90;;;;;;4147059;28;20057;-64
2022/10/23 05:20:49;;;;;;;8.15;2.40;;;14.60;99.90;;;;;;4166272;28;20437;-63
2022/10/23 05:22:53;;;;;;;4.75;2.30;;;14.60;99.90;;;;;;4131426;28;20080;-63
2022/10/23 05:24:53;;;;;;;4.93;2.13;;;14.60;99.90;;;;;;4124469;28;20050;-64
2022/10/23 05:26:55;;;;;;;8.13;2.00;;;14.60;99.90;;;;;;4124088;28;20092;-63
2022/10/23 05:28:56;;;;;;;4.53;1.98;;;14.60;99.90;;;;;;4124051;28;20038;-63
2022/10/23 05:31:00;;;;;;;4.43;2.22;;;14.60;99.90;;;;;;4125647;28;20037;-65
2022/10/23 05:33:01;;;;;;;3.72;2.30;;;14.60;99.90;;;;;;4127822;28;20027;-63
2022/10/23 05:35:07;;;;;;;3.97;2.33;;;14.60;99.90;;;;;;4135805;28;20423;-62
2022/10/23 05:37:10;;;;;;;4.22;1.90;;;14.60;99.90;;;;;;4125624;28;20037;-64
2022/10/23 05:39:11;;;;;;;6.88;1.77;;;14.70;99.90;;;;;;4124263;28;20069;-63
2022/10/23 05:41:12;;;;;;;3.10;1.88;;;14.70;99.90;;;;;;4123965;28;20043;-63
2022/10/23 05:43:12;;;;;;;4.50;1.48;;;14.70;99.90;;;;;;4131112;28;20038;-63
2022/10/23 05:45:13;;;;;;;4.30;2.05;;;14.70;99.90;;;;;;4122795;28;20415;-63
2022/10/23 05:47:13;;;;;;;3.38;1.95;;;14.70;99.90;;;;;;4120869;28;20035;-63
2022/10/23 05:49:14;;;;;;;3.10;1.83;;;14.70;99.90;;;;;;4122757;28;20038;-63
2022/10/23 05:51:19;;;;;;;3.92;2.00;;;14.70;99.90;;;;;;4137420;28;20383;-63
2022/10/23 05:53:19;;;;;;;3.55;1.90;;;14.70;99.90;;;;;;4121882;28;20046;-64
2022/10/23 05:55:20;;;;;;;4.20;1.50;;;14.60;99.90;;;;;;4139826;28;20132;-66
2022/10/23 05:57:21;;;;;;;6.43;2.00;;;14.70;99.90;;;;;;4107963;28;20031;-63
2022/10/23 05:59:21;;;;;;;3.92;2.00;;;14.70;99.90;;;;;;4140210;28;20038;-63
2022/10/23 06:01:22;;;;;;;7.10;2.20;;;14.70;99.90;;;;;;4138915;28;20038;-63
2022/10/23 06:03:23;;;;;;;4.80;2.30;;;14.70;99.90;;;;;;4127905;28;20047;-63
2022/10/23 06:05:23;;;;;;;3.45;1.48;;;14.70;99.90;;;;;;4141224;28;20118;-65
2022/10/23 06:07:25;;;;;;;5.82;1.60;;;14.70;99.90;;;;;;4125872;28;20035;-64
2022/10/23 06:09:26;;;;;;;3.13;1.48;;;14.70;99.90;;;;;;4125611;28;20042;-63
2022/10/23 06:11:27;;;;;;;3.58;1.60;;;14.70;99.90;;;;;;4141529;28;20468;-63
2022/10/23 06:13:27;;;;;;;3.28;1.77;;;14.70;99.90;;;;;;4124268;28;20039;-64
2022/10/23 06:15:28;;;;;;;3.13;1.20;;;14.70;99.90;;;;;;4124008;28;20041;-63
2022/10/23 06:17:28;;;;;;;3.50;1.83;;;14.70;99.90;;;;;;4125381;28;20061;-63
2022/10/23 06:19:29;;;;;;;5.72;1.50;;;14.70;99.90;;;;;;4126125;28;20038;-63
2022/10/23 06:21:30;;;;;;;4.63;1.80;;;14.70;99.90;;;;;;4126540;28;20030;-63
2022/10/23 06:23:33;;;;;;;2.22;1.40;;;14.70;99.90;;;;;;4125399;28;20395;-63
2022/10/23 06:25:33;;;;;;;3.38;2.00;;;14.70;99.90;;;;;;4120812;28;20034;-63
2022/10/23 06:27:34;;;;;;;4.43;1.80;;;14.70;99.90;;;;;;4125776;28;20388;-63
2022/10/23 06:29:34;;;;;;;3.50;2.00;;;14.70;99.90;;;;;;4124469;28;20400;-64
2022/10/23 06:31:35;;;;;;;3.65;1.67;;;14.70;99.90;;;;;;4125624;28;20062;-68
2022/10/23 06:33:36;;;;;;;2.83;1.55;;;14.70;99.90;;;;;;4127207;28;20122;-63
2022/10/23 06:35:36;;;;;;;3.42;1.63;;;14.70;99.90;;;;;;4121578;28;20042;-62
2022/10/23 06:37:37;;;;;;;5.97;1.88;;;14.70;99.90;;;;;;4127332;28;20150;-63
2022/10/23 06:39:39;;;;;;;5.75;1.60;;;14.70;99.90;;;;;;4125864;28;20037;-62
2022/10/23 06:41:40;;;;;;;3.55;1.75;;;14.70;99.90;;;;;;4125316;28;20062;-62
2022/10/23 06:43:41;;;;;;;3.45;1.50;;;14.70;99.90;;;;;;4141614;28;20152;-63
2022/10/23 06:45:42;;;;;;;5.22;1.88;;;14.80;99.90;;;;;;4122754;28;20058;-63
2022/10/23 06:47:42;;;;;;;2.38;1.65;;;14.70;99.90;;;;;;4120556;28;20035;-63
2022/10/23 06:49:43;;;;;;;5.10;1.50;;;14.70;99.90;;;;;;4139693;28;20110;-63
2022/10/23 06:51:43;;;;;;;2.17;1.35;;;14.70;99.90;;;;;;4124323;28;20031;-64
2022/10/23 06:53:44;;;;;;;5.63;1.70;;;14.80;99.90;;;;;;4122912;28;20129;-64
2022/10/23 06:55:45;;;;;;;4.57;1.60;;;14.80;99.90;;;;;;4119772;28;20037;-63
2022/10/23 06:57:46;;;;;;;7.18;2.10;;;14.80;99.90;;;;;;4120917;28;20484;-63
2022/10/23 06:59:46;;;;;;;6.85;1.60;;;14.80;99.90;;;;;;4137133;28;20419;-63
2022/10/23 07:01:47;;;;;;;3.33;1.60;;;14.80;99.90;;;;;;4116653;28;20081;-63
2022/10/23 07:03:48;;;;;;;3.25;1.58;;;14.90;99.90;;;;;;4135637;28;20454;-62
2022/10/23 07:05:48;;;;;;;3.50;1.52;;;14.90;99.90;;;;;;4137843;28;20117;-63
2022/10/23 07:07:49;;;;;;;2.45;1.50;;;14.90;99.90;;;;;;4126423;28;20030;-64
2022/10/23 07:09:50;;;;;;;2.63;1.30;;;14.90;99.90;;;;;;4141124;28;20068;-64
2022/10/23 07:11:50;;;;;;;4.15;1.90;;;14.90;99.90;;;;;;4123762;28;20491;-62
2022/10/23 07:13:52;;;;;;;2.78;1.33;;;15.00;99.90;;;;;;4128982;28;148527;-64
2022/10/23 07:15:53;;;;;;;2.22;1.38;;;14.90;99.90;;;;;;4128013;28;20034;-62
2022/10/23 07:17:54;;;;;;;6.47;1.60;;;15.00;99.90;;;;;;4133115;28;20026;-63
2022/10/23 07:19:54;;;;;;;4.95;1.52;;;14.90;99.90;;;;;;4139854;28;20124;-62
2022/10/23 07:21:55;;;;;;;4.47;1.40;;;15.00;99.90;;;;;;4155952;28;20438;-63
2022/10/23 07:23:56;;;;;;;2.67;1.55;;;15.00;99.90;;;;;;4143839;28;20072;-63
2022/10/23 07:26:13;;;;;;;3.75;1.75;;;15.00;99.90;;;;;;4141660;28;20576;-63
2022/10/23 07:28:14;;;;;;;3.75;1.50;;;15.00;99.90;;;;;;4141035;28;20072;-63
2022/10/23 07:30:15;;;;;;;2.75;1.35;;;15.00;99.90;;;;;;4153708;28;20112;-62
2022/10/23 07:32:16;;;;;;;2.45;1.70;;;15.00;99.90;;;;;;4141360;28;20030;-63
2022/10/23 07:34:17;;;;;;;2.42;1.52;;;15.10;99.90;;;;;;4140478;28;20093;-63
2022/10/23 07:36:18;;;;;;;3.58;1.42;;;15.00;99.90;;;;;;4140347;28;20038;-62
2022/10/23 07:38:19;;;;;;;2.63;1.65;;;15.10;99.90;;;;;;4123439;28;20056;-62
2022/10/23 07:40:20;;;;;;;2.50;1.40;;;15.10;99.90;;;;;;4140520;28;20092;-62
2022/10/23 07:42:21;;;;;;;4.22;1.83;;;15.10;99.90;;;;;;4143079;28;20038;-62
2022/10/23 07:44:21;;;;;;;4.03;1.45;;;15.20;99.90;;;;;;4158665;28;20114;-62
2022/10/23 07:46:22;;;;;;;2.95;1.48;;;15.20;99.90;;;;;;4135858;28;20164;-62
2022/10/23 07:48:23;;;;;;;4.93;1.77;;;15.20;99.90;;;;;;4140910;28;20050;-62
2022/10/23 07:50:24;;;;;;;5.07;1.98;;;15.20;99.90;;;;;;4140484;28;20026;-64
2022/10/23 07:52:26;;;;;;;2.55;1.67;;;15.20;99.90;;;;;;4142379;28;20066;-64
2022/10/23 07:54:26;;;;;;;2.58;1.42;;;15.20;99.90;;;;;;4139532;28;20518;-62
2022/10/23 07:56:28;;;;;;;2.20;1.50;;;15.20;99.90;;;;;;4132858;28;20046;-62
2022/10/23 07:58:29;;;;;;;6.07;1.40;;;15.30;99.90;;;;;;4140843;28;20038;-62
2022/10/23 08:00:30;;;;;;;6.68;1.85;;;15.30;99.90;;;;;;4139228;28;20424;-62
2022/10/23 08:02:30;;;;;;;3.30;1.50;;;15.30;99.90;;;;;;4141975;28;20118;-62
2022/10/23 08:04:31;;;;;;;4.90;1.70;;;15.30;99.90;;;;;;4142374;28;20034;-62
2022/10/23 08:06:32;;;;;;;4.30;1.67;;;15.30;99.90;;;;;;4140158;28;20037;-62
2022/10/23 08:08:32;;;;;;;4.38;1.58;;;15.40;99.90;;;;;;4142561;28;20034;-63
2022/10/23 08:10:33;;;;;;;3.45;1.40;;;15.40;99.90;;;;;;4139673;28;20033;-62
2022/10/23 08:12:33;;;;;;;5.03;1.50;;;15.40;99.90;;;;;;4142120;28;20387;-63
2022/10/23 08:14:34;;;;;;;4.45;1.63;;;15.40;99.90;;;;;;4156410;28;20383;-62
2022/10/23 08:16:37;;;;;;;3.50;1.63;;;15.50;99.90;;;;;;4140566;28;20072;-62
2022/10/23 08:18:39;;;;;;;8.93;1.48;;;15.50;99.90;;;;;;4142486;28;20458;-65
2022/10/23 08:20:44;;;;;;;;;;;15.60;99.90;;;;;;4137550;28;20030;-62
2022/10/23 08:22:45;;;;;;;2.78;1.20;;;15.70;99.90;;;;;;4141417;28;20371;-63
2022/10/23 08:24:45;;;;;;;4.22;1.38;;;15.70;99.90;;;;;;4143077;28;20053;-64
2022/10/23 08:26:49;;;;;;;2.38;1.40;;;15.80;99.90;;;;;;4141149;28;20034;-62
2022/10/23 08:28:50;;;;;;;5.47;1.63;;;15.90;99.90;;;;;;4142886;28;20038;-64
2022/10/23 08:30:51;;;;;;;3.97;1.77;;;15.90;99.90;;;;;;4139995;28;20030;-62
2022/10/23 08:32:51;;;;;;;5.63;1.88;;;16.00;99.90;;;;;;4141704;28;20037;-63
2022/10/23 08:34:52;;;;;;;6.05;2.05;;;16.10;99.90;;;;;;4141777;28;20116;-64
2022/10/23 08:36:52;;;;;;;3.80;1.60;;;16.20;99.90;;;;;;4136867;28;20037;-63
2022/10/23 08:38:55;;;;;;;2.13;1.40;;;16.30;99.90;;;;;;4139569;28;20057;-63
2022/10/23 08:40:55;;;;;;;2.95;1.42;;;16.30;99.90;;;;;;4138403;28;20045;-62
2022/10/23 08:43:05;;;;;;;2.35;1.13;;;16.40;99.90;;;;;;4139476;28;20424;-62
2022/10/23 08:45:40;;;;;;;4.65;1.45;;;16.40;99.90;;;;;;4139479;28;20470;-63
2022/10/23 08:47:45;;;;;;;6.00;1.77;;;16.40;99.90;;;;;;4139851;28;20479;-62
2022/10/23 08:49:54;;;;;;;3.67;1.42;;;16.50;99.90;;;;;;4155227;28;20683;-63
2022/10/23 08:51:59;;;;;;;3.97;1.48;;;16.50;99.90;;;;;;4138363;28;20411;-62
2022/10/23 08:54:10;;;;;;;5.68;2.03;;;16.50;99.90;;;;;;4142148;28;20042;-62
2022/10/23 08:56:34;;;;;;;4.13;1.48;;;16.50;99.90;;;;;;4134152;28;20042;-63
2022/10/23 08:58:56;;;;;;;4.15;1.65;;;16.50;99.90;;;;;;4129675;28;20062;-67
2022/10/23 09:00:57;;;;;;;6.18;1.85;;;16.50;99.90;;;;;;4136094;28;20105;-62
2022/10/23 09:03:01;;;;;;;2.70;1.35;;;16.50;99.90;;;;;;4124598;28;20440;-66
2022/10/23 09:05:01;;;;;;;1.83;1.30;;;16.50;99.90;;;;;;4141322;28;20105;-63
2022/10/23 09:07:14;;;;;;;5.75;1.65;;;16.50;99.90;;;;;;4124569;28;20086;-63
2022/10/23 09:09:20;;;;;;;;;;;16.50;99.90;;;;;;4139452;28;20157;-63
2022/10/23 09:11:47;;;;;;;4.70;1.38;;;16.50;99.90;;;;;;4122656;28;19918;-63
2022/10/23 09:14:25;;;;;;;3.72;1.38;;;16.60;99.90;;;;;;4122556;28;21348;-62
2022/10/23 09:17:04;;;;;;;3.30;1.35;;;16.60;99.90;;;;;;4119725;28;20026;-64
2022/10/23 09:19:18;;;;;;;4.82;1.35;;;16.60;99.90;;;;;;4139243;28;20455;-65
2022/10/23 09:21:20;;;;;;;8.07;1.92;;;16.50;99.90;;;;;;4136303;28;20085;-63
2022/10/23 09:23:23;;;;;;;2.53;1.48;;;16.60;99.90;;;;;;4138809;28;20593;-63
2022/10/23 09:25:34;;;;;;;;;;;16.60;99.90;;;;;;4136506;28;20034;-63
2022/10/23 09:27:34;;;;;;;3.28;1.48;;;16.60;99.90;;;;;;4129355;28;20448;-63
2022/10/23 09:29:35;;;;;;;2.85;1.17;;;16.60;99.90;;;;;;4136515;28;20077;-63
2022/10/23 09:31:54;;;;;;;3.08;1.50;;;16.70;99.90;;;;;;4136574;28;20546;-63
2022/10/23 09:34:00;;;;;;;4.03;1.60;;;16.70;99.90;;;;;;4156201;28;20033;-64
2022/10/23 09:36:06;;;;;;;2.85;1.13;;;16.70;99.90;;;;;;4136993;28;20099;-63
2022/10/23 09:38:31;;;;;;;3.42;1.60;;;16.80;99.90;;;;;;4135962;28;20483;-63
2022/10/23 09:40:42;;;;;;;3.50;1.48;;;16.80;99.90;;;;;;4154713;28;20038;-63
2022/10/23 09:42:50;;;;;;;3.33;1.40;;;16.90;99.90;;;;;;4137001;28;20033;-64
2022/10/23 09:44:53;;;;;;;2.35;1.45;;;16.90;99.90;;;;;;4136098;28;20384;-64
2022/10/23 09:47:06;;;;;;;3.75;1.80;;;16.90;99.90;;;;;;4133078;28;20410;-64
2022/10/23 09:49:27;;;;;;;6.60;1.85;;;16.90;99.90;;;;;;4149351;28;20135;-64
2022/10/23 09:51:28;;;;;;;3.45;1.65;;;16.90;99.90;;;;;;4137689;28;20037;-65
2022/10/23 09:53:39;;;;;;;4.43;1.80;;;17.00;99.90;;;;;;4139530;28;20403;-64
2022/10/23 09:55:39;;;;;;;2.90;1.23;;;17.00;99.90;;;;;;4131146;28;20114;-64
2022/10/23 09:57:42;;;;;;;6.22;1.63;;;17.00;99.90;;;;;;4135036;28;20029;-63
2022/10/23 09:59:43;;;;;;;1.70;1.30;;;17.10;99.90;;;;;;4132960;28;20038;-63
2022/10/23 10:01:53;;;;;;;3.45;1.58;;;17.20;99.90;;;;;;4136827;28;20430;-65
2022/10/23 10:03:54;;;;;;;2.42;1.55;;;17.20;99.90;;;;;;4145303;28;20034;-65
2022/10/23 10:06:03;;;;;;;5.68;2.03;;;17.20;99.90;;;;;;4142791;28;20030;-63
2022/10/23 10:08:23;;;;;;;4.65;1.80;;;17.20;99.90;;;;;;4137979;28;20045;-63
2022/10/23 10:10:27;;;;;;;5.70;1.75;;;17.20;99.90;;;;;;4140744;28;20129;-63
2022/10/23 10:12:28;;;;;;;2.42;1.33;;;17.30;99.90;;;;;;4141120;28;20121;-66
2022/10/23 10:14:56;;;;;;;1.90;1.35;;;17.30;99.90;;;;;;4142279;28;20050;-64
2022/10/23 10:17:17;;;;;;;8.07;1.85;;;17.30;99.90;;;;;;4135685;28;20125;-63
2022/10/23 10:19:34;;;;;;;4.68;1.60;;;17.30;99.90;;;;;;4140881;28;20052;-63
2022/10/23 10:21:37;;;;;;;4.03;1.80;;;17.40;99.90;;;;;;4138837;28;20514;-64
2022/10/23 10:24:05;;;;;;;3.10;1.55;;;17.30;99.90;;;;;;4141834;28;20101;-63
2022/10/23 10:26:31;;;;;;;3.67;1.50;;;17.40;99.90;;;;;;4140584;28;20117;-63
2022/10/23 10:29:02;;;;;;;3.00;1.80;;;17.40;99.90;;;;;;4141530;28;20044;-63
2022/10/23 10:31:26;;;;;;;5.85;2.03;;;17.40;99.90;;;;;;4139548;28;20153;-63
2022/10/23 10:33:48;;;;;;;3.25;1.88;;;17.40;99.90;;;;;;4138273;28;20030;-63
2022/10/23 10:35:58;;;;;;;7.88;2.05;;;17.40;99.90;;;;;;4152543;28;20555;-63
2022/10/23 10:38:21;;;;;;;4.53;1.88;;;17.50;99.90;;;;;;4142038;28;20070;-64
2022/10/23 10:40:32;;;;;;;3.30;1.90;;;17.50;99.90;;;;;;4156177;28;20049;-63
2022/10/23 10:43:10;;;;;;;2.85;1.83;;;17.50;99.90;;;;;;4135955;28;20062;-64
2022/10/23 10:45:42;;;;;;;4.30;1.75;;;17.50;99.90;;;;;;4134685;28;20431;-65
2022/10/23 10:48:01;;;;;;;6.68;1.50;;;17.60;99.90;;;;;;4138955;28;20533;-63
2022/10/23 10:50:17;;;;;;;4.75;1.88;;;17.60;99.90;;;;;;4141981;28;20596;-63
2022/10/23 10:52:33;;;;;;;2.20;1.40;;;17.60;99.90;;;;;;4158339;28;20049;-63
2022/10/23 10:54:51;;;;;;;3.53;1.60;;;17.60;99.90;;;;;;4143293;28;20046;-63
2022/10/23 10:56:53;;;;;;;5.88;1.52;;;17.70;99.90;;;;;;4138809;28;20034;-63